Time;durP1;ratioP1;P1;durP2;ratioP2;P2;SDS_P1;SDS_P2;PMS_P1;PMS_P2;Temp;Humidity;BMP_temperature;BMP_pressure;BME280_temperature;BME280_humidity;BME280_pressure;Samples;Min_cycle;Max_cycle;Signal;HPM_P1;HPM_P2
2023/08/12 00:00:12;;;;;;;9.93;4.37;;;;;;;;;;5016343;28;91999;-61
2023/08/12 00:02:40;;;;;;;8.47;4.90;;;;;;;;;;5003089;28;92990;-61
2023/08/12 00:05:10;;;;;;;4.53;3.83;;;;;;;;;;4996845;28;92959;-61
2023/08/12 00:07:41;;;;;;;7.07;4.50;;;;;;;;;;4997384;28;92014;-61
2023/08/12 00:10:10;;;;;;;8.27;4.10;;;;;;;;;;4985004;28;94339;-61
2023/08/12 00:12:40;;;;;;;4.80;3.97;;;;;;;;;;4996351;28;95180;-62
2023/08/12 00:15:10;;;;;;;6.40;3.93;;;;;;;;;;4985515;28;93729;-61
2023/08/12 00:17:41;;;;;;;5.33;4.60;;;;;;;;;;4985528;28;92173;-61
2023/08/12 00:20:10;;;;;;;6.37;4.23;;;;;;;;;;4998552;28;92736;-61
2023/08/12 00:22:40;;;;;;;6.67;4.13;;;;;;;;;;4999992;28;93109;-61
2023/08/12 00:25:08;;;;;;;6.13;4.40;;;;;;;;;;4999478;28;92821;-61
2023/08/12 00:27:37;;;;;;;5.53;4.00;;;;;;;;;;4996329;28;92809;-62
2023/08/12 00:30:08;;;;;;;5.73;3.93;;;;;;;;;;4995761;28;91369;-62
2023/08/12 00:32:36;;;;;;;7.40;4.43;;;;;;;;;;4983696;28;94246;-61
2023/08/12 00:35:05;;;;;;;6.33;4.03;;;;;;;;;;4992559;28;93009;-61
2023/08/12 00:37:34;;;;;;;6.93;4.57;;;;;;;;;;5000410;28;92886;-63
2023/08/12 00:40:02;;;;;;;6.27;4.10;;;;;;;;;;4990431;28;92411;-62
2023/08/12 00:42:31;;;;;;;4.63;4.10;;;;;;;;;;4985153;28;94310;-61
2023/08/12 00:45:00;;;;;;;5.87;4.23;;;;;;;;;;4992601;28;92393;-61
2023/08/12 00:47:30;;;;;;;5.23;4.00;;;;;;;;;;4997289;28;92056;-61
2023/08/12 00:49:59;;;;;;;7.53;4.47;;;;;;;;;;4995831;28;92113;-62
2023/08/12 00:52:27;;;;;;;7.47;5.10;;;;;;;;;;5000794;28;94130;-61
2023/08/12 00:54:56;;;;;;;5.97;4.30;;;;;;;;;;4999449;28;93565;-61
2023/08/12 00:57:24;;;;;;;6.80;5.00;;;;;;;;;;4989333;28;92375;-61
2023/08/12 00:59:53;;;;;;;9.03;5.60;;;;;;;;;;4999825;28;92064;-61
2023/08/12 01:02:21;;;;;;;9.83;5.80;;;;;;;;;;4998341;28;95102;-62
2023/08/12 01:04:52;;;;;;;10.13;6.37;;;;;;;;;;5000098;28;94960;-62
2023/08/12 01:07:20;;;;;;;7.70;6.03;;;;;;;;;;5000828;28;92056;-62
2023/08/12 01:09:49;;;;;;;8.10;4.93;;;;;;;;;;5000682;28;92253;-61
2023/08/12 01:12:19;;;;;;;7.70;5.27;;;;;;;;;;4999597;28;94327;-61
2023/08/12 01:14:47;;;;;;;5.93;5.30;;;;;;;;;;4999346;28;92770;-61
2023/08/12 01:17:16;;;;;;;9.70;5.30;;;;;;;;;;4999524;28;91914;-61
2023/08/12 01:19:44;;;;;;;8.27;5.13;;;;;;;;;;4999641;28;91283;-61
2023/08/12 01:22:14;;;;;;;7.73;5.00;;;;;;;;;;4999969;28;93135;-61
2023/08/12 01:24:44;;;;;;;6.90;4.90;;;;;;;;;;4999126;28;93812;-62
2023/08/12 01:27:14;;;;;;;6.27;4.60;;;;;;;;;;4999615;28;93023;-61
2023/08/12 01:29:44;;;;;;;9.17;4.90;;;;;;;;;;4999310;28;92050;-61
2023/08/12 01:32:13;;;;;;;7.47;5.20;;;;;;;;;;4985916;28;94272;-61
2023/08/12 01:34:44;;;;;;;7.03;5.10;;;;;;;;;;4998895;28;92098;-61
2023/08/12 01:37:13;;;;;;;8.03;4.50;;;;;;;;;;4999807;28;92149;-62
2023/08/12 01:39:41;;;;;;;6.07;4.30;;;;;;;;;;4999498;28;92148;-62
2023/08/12 01:42:12;;;;;;;9.17;4.87;;;;;;;;;;4998230;28;93126;-61
2023/08/12 01:44:40;;;;;;;5.80;4.80;;;;;;;;;;4999767;28;93796;-62
2023/08/12 01:47:10;;;;;;;5.87;3.83;;;;;;;;;;4999444;28;92018;-63
2023/08/12 01:49:39;;;;;;;6.60;4.83;;;;;;;;;;4999279;28;91985;-62
2023/08/12 01:52:07;;;;;;;7.47;4.20;;;;;;;;;;4998211;28;95194;-62
2023/08/12 01:54:36;;;;;;;9.40;4.30;;;;;;;;;;4998856;28;93639;-61
2023/08/12 01:57:05;;;;;;;5.20;3.93;;;;;;;;;;4999140;28;92069;-61
2023/08/12 01:59:35;;;;;;;7.10;4.30;;;;;;;;;;4999891;28;92148;-61
2023/08/12 02:02:04;;;;;;;5.77;4.60;;;;;;;;;;5009817;28;93397;-62
2023/08/12 02:04:32;;;;;;;5.07;3.87;;;;;;;;;;5018146;28;93867;-61
2023/08/12 02:07:01;;;;;;;7.70;4.73;;;;;;;;;;5017717;28;92015;-61
2023/08/12 02:09:30;;;;;;;7.30;4.93;;;;;;;;;;4999227;28;91426;-61
2023/08/12 02:11:58;;;;;;;5.83;4.23;;;;;;;;;;4998368;28;94155;-61
2023/08/12 02:14:27;;;;;;;8.17;4.43;;;;;;;;;;4997471;28;93856;-61
2023/08/12 02:16:57;;;;;;;7.50;4.70;;;;;;;;;;4998245;28;93029;-61
2023/08/12 02:19:25;;;;;;;6.50;4.50;;;;;;;;;;4998506;28;92164;-62
2023/08/12 02:21:54;;;;;;;7.57;4.60;;;;;;;;;;4998688;28;94200;-61
2023/08/12 02:24:22;;;;;;;5.60;4.50;;;;;;;;;;4998752;28;92937;-61
2023/08/12 02:26:50;;;;;;;5.77;4.57;;;;;;;;;;4998533;28;92149;-61
2023/08/12 02:29:19;;;;;;;7.17;4.87;;;;;;;;;;4997214;28;91975;-61
2023/08/12 02:31:47;;;;;;;7.93;5.57;;;;;;;;;;4997776;28;95073;-61
2023/08/12 02:34:17;;;;;;;8.73;5.47;;;;;;;;;;4993714;28;92540;-61
2023/08/12 02:36:46;;;;;;;10.03;5.70;;;;;;;;;;4997434;28;92034;-61
2023/08/12 02:39:14;;;;;;;7.30;5.00;;;;;;;;;;4997077;28;92123;-61
2023/08/12 02:41:43;;;;;;;6.60;4.67;;;;;;;;;;4986255;28;94029;-61
2023/08/12 02:44:11;;;;;;;9.87;5.67;;;;;;;;;;4977727;28;94776;-61
2023/08/12 02:46:39;;;;;;;6.60;5.03;;;;;;;;;;4993205;28;92004;-62
2023/08/12 02:49:08;;;;;;;6.60;4.37;;;;;;;;;;4997181;28;92138;-61
2023/08/12 02:51:38;;;;;;;9.53;5.47;;;;;;;;;;4989356;28;94112;-61
2023/08/12 02:54:06;;;;;;;8.50;5.30;;;;;;;;;;4978813;28;92787;-61
2023/08/12 02:56:35;;;;;;;6.43;5.03;;;;;;;;;;4987721;28;92123;-61
2023/08/12 02:59:03;;;;;;;6.27;4.33;;;;;;;;;;4983474;28;91407;-61
2023/08/12 03:01:32;;;;;;;7.30;5.53;;;;;;;;;;4995496;28;93802;-61
2023/08/12 03:04:00;;;;;;;6.20;5.03;;;;;;;;;;4987142;28;93893;-61
2023/08/12 03:06:29;;;;;;;7.67;5.00;;;;;;;;;;4995416;28;93096;-61
2023/08/12 03:09:01;;;;;;;7.83;5.20;;;;;;;;;;4980717;28;92130;-61
2023/08/12 03:11:29;;;;;;;6.20;4.27;;;;;;;;;;4993374;28;94062;-61
2023/08/12 03:13:57;;;;;;;6.43;4.50;;;;;;;;;;4996731;28;93689;-61
2023/08/12 03:16:26;;;;;;;7.43;5.07;;;;;;;;;;4994643;28;92148;-62
2023/08/12 03:18:54;;;;;;;6.00;4.60;;;;;;;;;;4978937;28;92084;-62
2023/08/12 03:21:23;;;;;;;8.93;4.60;;;;;;;;;;4990954;28;93924;-61
2023/08/12 03:23:51;;;;;;;6.47;4.40;;;;;;;;;;4978401;28;92783;-61
2023/08/12 03:26:21;;;;;;;6.20;4.80;;;;;;;;;;4989191;28;93863;-61
2023/08/12 03:28:49;;;;;;;6.63;4.17;;;;;;;;;;4977860;28;92056;-61
2023/08/12 03:31:18;;;;;;;9.87;4.37;;;;;;;;;;4990397;28;94049;-61
2023/08/12 03:33:46;;;;;;;7.67;4.60;;;;;;;;;;4989620;28;93789;-61
2023/08/12 03:36:15;;;;;;;5.30;3.67;;;;;;;;;;4997063;28;92714;-61
2023/08/12 03:38:43;;;;;;;7.43;3.60;;;;;;;;;;4978837;28;92105;-61
2023/08/12 03:41:12;;;;;;;5.13;3.60;;;;;;;;;;4977608;28;94108;-61
2023/08/12 03:43:41;;;;;;;5.53;4.10;;;;;;;;;;4977474;28;94108;-62
2023/08/12 03:46:10;;;;;;;5.93;3.57;;;;;;;;;;4978063;28;92012;-61
2023/08/12 03:48:38;;;;;;;4.80;3.50;;;;;;;;;;4976753;28;91389;-61
2023/08/12 03:51:07;;;;;;;6.60;3.50;;;;;;;;;;4997404;28;94121;-61
2023/08/12 03:53:35;;;;;;;4.83;3.30;;;;;;;;;;4997896;28;92735;-61
2023/08/12 03:56:04;;;;;;;5.53;3.90;;;;;;;;;;4997671;28;92828;-61
2023/08/12 03:58:32;;;;;;;8.67;4.37;;;;;;;;;;4998281;28;91841;-62
2023/08/12 04:01:02;;;;;;;6.97;3.90;;;;;;;;;;4995612;28;94402;-61
2023/08/12 04:03:31;;;;;;;3.17;2.53;;;;;;;;;;4987195;28;93937;-62
2023/08/12 04:06:00;;;;;;;6.77;3.70;;;;;;;;;;4980146;28;91946;-61
2023/08/12 04:08:28;;;;;;;6.10;3.60;;;;;;;;;;4989443;28;92096;-61
2023/08/12 04:10:56;;;;;;;4.73;3.20;;;;;;;;;;4997096;28;92900;-61
2023/08/12 04:13:25;;;;;;;5.03;3.20;;;;;;;;;;4987689;28;93930;-61
2023/08/12 04:15:54;;;;;;;4.20;3.10;;;;;;;;;;4996074;28;92028;-61
2023/08/12 04:18:23;;;;;;;3.67;2.67;;;;;;;;;;4986562;28;92206;-61
2023/08/12 04:20:53;;;;;;;5.73;3.50;;;;;;;;;;4977927;28;94127;-61
2023/08/12 04:23:22;;;;;;;4.17;3.20;;;;;;;;;;4987417;28;94971;-61
2023/08/12 04:25:50;;;;;;;3.60;2.33;;;;;;;;;;4996115;28;92025;-61
2023/08/12 04:28:19;;;;;;;5.57;3.20;;;;;;;;;;4987126;28;91990;-61
2023/08/12 04:30:50;;;;;;;3.30;2.47;;;;;;;;;;4978412;28;93076;-62
2023/08/12 04:33:19;;;;;;;3.87;2.43;;;;;;;;;;4982285;28;93812;-61
2023/08/12 04:35:49;;;;;;;5.60;2.63;;;;;;;;;;4983141;28;92015;-61
2023/08/12 04:38:18;;;;;;;3.53;2.07;;;;;;;;;;4983344;28;92013;-61
2023/08/12 04:40:47;;;;;;;2.80;2.40;;;;;;;;;;4978301;28;93059;-61
2023/08/12 04:43:15;;;;;;;4.37;2.73;;;;;;;;;;4984203;28;92812;-62
2023/08/12 04:45:46;;;;;;;3.13;2.77;;;;;;;;;;4995421;28;93864;-61
2023/08/12 04:48:15;;;;;;;3.93;2.40;;;;;;;;;;4989729;28;91960;-62
2023/08/12 04:50:43;;;;;;;3.30;2.23;;;;;;;;;;4986554;28;92946;-61
2023/08/12 04:53:13;;;;;;;3.10;2.20;;;;;;;;;;4994391;28;93885;-61
2023/08/12 04:55:41;;;;;;;2.60;1.90;;;;;;;;;;4994936;28;92028;-61
2023/08/12 04:58:14;;;;;;;2.60;1.97;;;;;;;;;;4988591;28;92185;-62
2023/08/12 05:00:42;;;;;;;2.40;2.17;;;;;;;;;;4978695;28;94237;-61
2023/08/12 05:03:12;;;;;;;2.40;2.13;;;;;;;;;;4984727;28;91209;-61
2023/08/12 05:05:41;;;;;;;3.57;2.23;;;;;;;;;;4998476;28;91781;-62
2023/08/12 05:08:09;;;;;;;3.10;2.17;;;;;;;;;;4998432;28;92081;-61
2023/08/12 05:10:39;;;;;;;3.13;2.00;;;;;;;;;;4984102;28;94341;-61
2023/08/12 05:13:07;;;;;;;3.47;2.30;;;;;;;;;;4983587;28;93885;-61
2023/08/12 05:15:36;;;;;;;2.70;1.73;;;;;;;;;;4998234;28;92422;-62
2023/08/12 05:18:05;;;;;;;3.23;1.97;;;;;;;;;;4997759;28;92090;-63
2023/08/12 05:20:34;;;;;;;3.03;2.17;;;;;;;;;;4998777;28;93127;-62
2023/08/12 05:23:02;;;;;;;2.43;1.70;;;;;;;;;;4994723;28;93742;-62
2023/08/12 05:25:31;;;;;;;1.70;1.47;;;;;;;;;;4997780;28;92008;-61
2023/08/12 05:28:01;;;;;;;2.83;2.00;;;;;;;;;;4997972;28;91263;-61
2023/08/12 05:30:29;;;;;;;2.83;2.10;;;;;;;;;;4980445;28;93091;-62
2023/08/12 05:32:58;;;;;;;1.60;1.50;;;;;;;;;;4990147;28;92772;-61
2023/08/12 05:35:27;;;;;;;3.97;2.00;;;;;;;;;;4979332;28;93006;-61
2023/08/12 05:37:56;;;;;;;1.90;1.40;;;;;;;;;;4993333;28;92096;-61
2023/08/12 05:40:24;;;;;;;2.60;1.80;;;;;;;;;;4992930;28;94070;-61
2023/08/12 05:42:53;;;;;;;1.60;1.50;;;;;;;;;;4979420;28;93726;-64
2023/08/12 05:45:23;;;;;;;3.07;1.63;;;;;;;;;;4988049;28;92043;-65
2023/08/12 05:47:51;;;;;;;2.03;1.67;;;;;;;;;;4999681;28;91958;-62
2023/08/12 05:50:20;;;;;;;2.63;1.50;;;;;;;;;;4998963;28;93103;-63
2023/08/12 05:52:48;;;;;;;2.13;1.57;;;;;;;;;;4989688;28;92571;-62
2023/08/12 05:55:17;;;;;;;1.57;1.30;;;;;;;;;;4997687;28;92047;-62
2023/08/12 05:57:45;;;;;;;3.37;1.80;;;;;;;;;;4999091;28;92026;-59
2023/08/12 06:00:14;;;;;;;1.40;1.20;;;;;;;;;;4995370;28;95120;-62
2023/08/12 06:02:44;;;;;;;2.37;1.23;;;;;;;;;;4979098;28;93690;-62
2023/08/12 06:05:12;;;;;;;1.27;0.93;;;;;;;;;;4992765;28;92125;-63
2023/08/12 06:07:41;;;;;;;2.80;1.17;;;;;;;;;;4984614;28;92257;-61
2023/08/12 06:10:09;;;;;;;1.00;0.90;;;;;;;;;;4991640;28;94413;-62
2023/08/12 06:12:38;;;;;;;1.67;0.97;;;;;;;;;;4988333;28;93620;-62
2023/08/12 06:15:07;;;;;;;1.57;0.83;;;;;;;;;;4989228;28;92076;-61
2023/08/12 06:17:35;;;;;;;0.60;0.60;;;;;;;;;;4996080;28;91472;-61
2023/08/12 06:20:05;;;;;;;0.70;0.70;;;;;;;;;;4982686;28;93298;-61
2023/08/12 06:22:34;;;;;;;1.73;1.07;;;;;;;;;;4984038;28;93887;-62
2023/08/12 06:25:02;;;;;;;0.67;0.60;;;;;;;;;;4986046;28;93085;-62
2023/08/12 06:27:31;;;;;;;1.47;0.70;;;;;;;;;;4995652;28;92062;-61
2023/08/12 06:29:59;;;;;;;0.40;0.40;;;;;;;;;;4988885;28;94117;-61
2023/08/12 06:32:28;;;;;;;0.93;0.83;;;;;;;;;;4995604;28;93792;-61
2023/08/12 06:34:56;;;;;;;0.97;0.87;;;;;;;;;;4992515;28;93392;-62
2023/08/12 06:37:26;;;;;;;0.83;0.83;;;;;;;;;;4982212;28;92241;-59
2023/08/12 06:39:55;;;;;;;1.30;1.07;;;;;;;;;;4976299;28;94204;-60
2023/08/12 06:42:23;;;;;;;2.60;1.47;;;;;;;;;;4989941;28;92663;-60
2023/08/12 06:44:57;;;;;;;1.60;1.20;;;;;;;;;;4986509;28;92123;-60
2023/08/12 06:47:26;;;;;;;1.47;1.20;;;;;;;;;;4976257;28;92475;-60
2023/08/12 06:49:55;;;;;;;1.60;1.20;;;;;;;;;;4984074;28;95598;-60
2023/08/12 06:52:23;;;;;;;2.03;1.40;;;;;;;;;;4979731;28;94537;-60
2023/08/12 06:54:53;;;;;;;1.63;1.30;;;;;;;;;;4982457;28;92242;-60
2023/08/12 06:57:21;;;;;;;2.47;1.33;;;;;;;;;;4982246;28;92620;-60
2023/08/12 06:59:50;;;;;;;1.40;1.27;;;;;;;;;;4987415;28;93077;-59
2023/08/12 07:02:18;;;;;;;2.40;1.40;;;;;;;;;;4980347;28;93760;-59
2023/08/12 07:04:47;;;;;;;2.87;1.27;;;;;;;;;;4991284;28;92111;-59
2023/08/12 07:07:15;;;;;;;2.77;1.43;;;;;;;;;;4983289;28;91407;-60
2023/08/12 07:09:43;;;;;;;1.63;1.20;;;;;;;;;;4976022;28;94428;-60
2023/08/12 07:12:13;;;;;;;1.13;0.97;;;;;;;;;;4975764;28;92235;-59
2023/08/12 07:14:42;;;;;;;1.53;0.90;;;;;;;;;;4976925;28;93133;-60
2023/08/12 07:17:10;;;;;;;3.57;1.10;;;;;;;;;;4975701;28;92153;-60
2023/08/12 07:19:39;;;;;;;1.53;0.80;;;;;;;;;;4987747;28;93585;-60
2023/08/12 07:22:07;;;;;;;3.10;0.97;;;;;;;;;;4994764;28;92771;-60
2023/08/12 07:24:36;;;;;;;1.30;0.70;;;;;;;;;;4992159;28;92637;-60
2023/08/12 07:27:04;;;;;;;1.03;0.70;;;;;;;;;;4975750;28;92509;-60
2023/08/12 07:29:36;;;;;;;4.33;0.87;;;;;;;;;;4976156;28;94081;-60
2023/08/12 07:32:05;;;;;;;2.73;0.80;;;;;;;;;;4975614;28;92624;-60
2023/08/12 07:34:33;;;;;;;1.80;0.90;;;;;;;;;;4976895;28;92155;-60
2023/08/12 07:37:02;;;;;;;0.90;0.40;;;;;;;;;;4993693;28;92187;-60
2023/08/12 07:39:30;;;;;;;1.73;0.70;;;;;;;;;;4993782;28;95898;-60
2023/08/12 07:41:59;;;;;;;1.10;0.70;;;;;;;;;;4993681;28;94912;-58
2023/08/12 07:44:28;;;;;;;2.07;0.67;;;;;;;;;;4994770;28;92103;-64
2023/08/12 07:46:58;;;;;;;1.40;0.57;;;;;;;;;;4993845;28;92071;-60
2023/08/12 07:49:26;;;;;;;0.73;0.67;;;;;;;;;;4994422;28;93184;-59
2023/08/12 07:51:55;;;;;;;0.80;0.50;;;;;;;;;;4993142;28;94138;-58
2023/08/12 07:54:23;;;;;;;1.23;0.43;;;;;;;;;;4995514;28;92004;-59
2023/08/12 07:56:53;;;;;;;1.07;0.70;;;;;;;;;;4976191;28;91416;-60
2023/08/12 07:59:21;;;;;;;1.13;0.60;;;;;;;;;;4974421;28;93272;-60
2023/08/12 08:01:50;;;;;;;0.70;0.50;;;;;;;;;;4976817;28;95872;-59
2023/08/12 08:04:20;;;;;;;0.37;0.37;;;;;;;;;;4974566;28;93035;-60
2023/08/12 08:06:49;;;;;;;2.63;0.40;;;;;;;;;;4977926;28;92426;-62
2023/08/12 08:09:19;;;;;;;0.60;0.40;;;;;;;;;;4976340;28;94170;-62
2023/08/12 08:11:47;;;;;;;3.77;0.80;;;;;;;;;;4990350;28;93801;-61
2023/08/12 08:14:16;;;;;;;1.73;0.50;;;;;;;;;;4995030;28;92061;-62
2023/08/12 08:16:44;;;;;;;0.57;0.40;;;;;;;;;;4979108;28;92214;-62
2023/08/12 08:19:13;;;;;;;0.80;0.40;;;;;;;;;;4986023;28;92674;-61
2023/08/12 08:21:43;;;;;;;0.93;0.40;;;;;;;;;;4992296;28;92389;-61
2023/08/12 08:24:13;;;;;;;0.30;0.30;;;;;;;;;;4994433;28;92188;-62
2023/08/12 08:26:41;;;;;;;0.70;0.57;;;;;;;;;;4980665;28;92144;-61
2023/08/12 08:29:10;;;;;;;1.40;0.50;;;;;;;;;;4974400;28;95056;-62
2023/08/12 08:31:39;;;;;;;2.90;0.40;;;;;;;;;;4975840;28;96866;-63
2023/08/12 08:34:09;;;;;;;3.60;0.80;;;;;;;;;;4985867;28;92076;-62
2023/08/12 08:36:38;;;;;;;1.40;0.70;;;;;;;;;;4990404;28;92189;-62
2023/08/12 08:39:08;;;;;;;0.43;0.43;;;;;;;;;;4997900;28;93078;-61
2023/08/12 08:41:37;;;;;;;5.47;0.90;;;;;;;;;;4984989;28;93877;-62
2023/08/12 08:44:08;;;;;;;2.63;0.63;;;;;;;;;;4993901;28;92760;-62
2023/08/12 08:46:36;;;;;;;0.83;0.47;;;;;;;;;;4997102;28;93082;-62
2023/08/12 08:49:05;;;;;;;2.10;0.83;;;;;;;;;;4991846;28;93212;-62
2023/08/12 08:51:36;;;;;;;2.50;1.07;;;;;;;;;;4987736;28;92831;-62
2023/08/12 08:54:05;;;;;;;1.77;0.77;;;;;;;;;;4995778;28;93161;-61
2023/08/12 08:56:35;;;;;;;1.50;0.47;;;;;;;;;;4987037;28;92187;-60
2023/08/12 08:59:06;;;;;;;2.83;0.77;;;;;;;;;;4977139;28;94098;-60
2023/08/12 09:01:35;;;;;;;1.17;0.50;;;;;;;;;;4982745;28;92722;-58
2023/08/12 09:04:04;;;;;;;1.27;0.60;;;;;;;;;;4984734;28;92945;-58
2023/08/12 09:06:33;;;;;;;1.83;0.63;;;;;;;;;;4997116;28;92505;-58
2023/08/12 09:09:02;;;;;;;3.93;0.50;;;;;;;;;;4985815;28;94196;-58
2023/08/12 09:11:30;;;;;;;1.27;0.60;;;;;;;;;;4988248;28;93878;-58
2023/08/12 09:14:00;;;;;;;0.90;0.57;;;;;;;;;;4992176;28;92091;-57
2023/08/12 09:16:28;;;;;;;0.83;0.60;;;;;;;;;;4997176;28;92046;-57
2023/08/12 09:18:57;;;;;;;2.00;0.57;;;;;;;;;;4996089;28;94079;-58
2023/08/12 09:21:26;;;;;;;0.47;0.37;;;;;;;;;;4996421;28;93905;-58
2023/08/12 09:23:54;;;;;;;3.63;1.13;;;;;;;;;;4996557;28;92477;-58
2023/08/12 09:26:23;;;;;;;0.70;0.60;;;;;;;;;;4997028;28;92252;-58
2023/08/12 09:28:51;;;;;;;0.90;0.80;;;;;;;;;;4997240;28;94348;-58
2023/08/12 09:31:27;;;;;;;1.37;1.17;;;;;;;;;;4996996;28;93534;-58
2023/08/12 09:33:59;;;;;;;2.13;1.30;;;;;;;;;;4997747;28;92116;-58
2023/08/12 09:36:30;;;;;;;4.37;1.30;;;;;;;;;;4997597;28;91336;-58
2023/08/12 09:38:59;;;;;;;2.87;1.93;;;;;;;;;;4996163;28;94163;-58
2023/08/12 09:41:28;;;;;;;2.57;1.80;;;;;;;;;;4996100;28;92769;-58
2023/08/12 09:43:57;;;;;;;2.83;1.63;;;;;;;;;;4995069;28;93032;-58
2023/08/12 09:46:27;;;;;;;2.70;1.70;;;;;;;;;;4995478;28;92101;-58
2023/08/12 09:48:56;;;;;;;2.63;2.00;;;;;;;;;;4996000;28;93044;-57
2023/08/12 09:51:25;;;;;;;9.47;2.43;;;;;;;;;;4991223;28;93917;-57
2023/08/12 09:53:54;;;;;;;3.17;1.80;;;;;;;;;;4977160;28;92590;-57
2023/08/12 09:56:24;;;;;;;3.67;2.23;;;;;;;;;;4976698;28;92749;-61
2023/08/12 09:58:52;;;;;;;6.67;2.77;;;;;;;;;;4976945;28;93097;-57
2023/08/12 10:01:21;;;;;;;4.27;2.10;;;;;;;;;;4980796;28;92715;-58
2023/08/12 10:03:51;;;;;;;4.57;2.40;;;;;;;;;;4996393;28;92058;-57
2023/08/12 10:06:20;;;;;;;3.83;2.93;;;;;;;;;;4996820;28;92009;-57
2023/08/12 10:08:48;;;;;;;3.33;2.07;;;;;;;;;;4995968;28;95166;-58
2023/08/12 10:11:17;;;;;;;5.07;2.87;;;;;;;;;;4996555;28;95144;-58
2023/08/12 10:13:45;;;;;;;4.67;2.60;;;;;;;;;;4996579;28;91939;-60
2023/08/12 10:16:13;;;;;;;5.20;2.67;;;;;;;;;;4995878;28;92024;-60
2023/08/12 10:18:42;;;;;;;5.60;3.40;;;;;;;;;;4996854;28;92982;-59
2023/08/12 10:21:13;;;;;;;5.17;2.70;;;;;;;;;;4995934;28;92729;-60
2023/08/12 10:23:42;;;;;;;3.77;2.70;;;;;;;;;;4996339;28;92148;-59
2023/08/12 10:26:14;;;;;;;5.07;3.47;;;;;;;;;;4995954;28;91657;-58
2023/08/12 10:28:43;;;;;;;6.57;3.10;;;;;;;;;;4990739;28;93899;-58
2023/08/12 10:31:12;;;;;;;6.00;3.07;;;;;;;;;;4985546;28;93292;-58
2023/08/12 10:33:41;;;;;;;3.93;3.20;;;;;;;;;;4995730;28;93055;-58
2023/08/12 10:36:09;;;;;;;5.63;2.47;;;;;;;;;;4978182;28;92205;-58
2023/08/12 10:38:39;;;;;;;5.07;3.57;;;;;;;;;;4975805;28;93090;-58
2023/08/12 10:41:18;;;;;;;3.47;2.60;;;;;;;;;;4993326;28;92743;-58
2023/08/12 10:43:56;;;;;;;3.83;2.80;;;;;;;;;;4995380;28;92130;-57
2023/08/12 10:46:25;;;;;;;7.73;2.23;;;;;;;;;;4995114;28;92133;-58
2023/08/12 10:49:01;;;;;;;2.40;2.03;;;;;;;;;;4995148;28;93142;-58
2023/08/12 10:51:46;;;;;;;4.50;2.10;;;;;;;;;;4995765;28;92814;-58
2023/08/12 10:54:19;;;;;;;3.93;2.10;;;;;;;;;;4995976;28;92052;-58
2023/08/12 10:57:08;;;;;;;2.00;1.60;;;;;;;;;;4995984;28;92242;-58
2023/08/12 10:59:58;;;;;;;3.00;2.20;;;;;;;;;;4995555;28;95773;-58
2023/08/12 11:02:30;;;;;;;3.33;1.93;;;;;;;;;;4994354;28;93664;-57
2023/08/12 11:04:59;;;;;;;6.17;2.50;;;;;;;;;;4995415;28;92081;-57
2023/08/12 11:07:34;;;;;;;5.13;2.33;;;;;;;;;;4995143;28;92723;-58
2023/08/12 11:10:07;;;;;;;3.50;2.50;;;;;;;;;;4995663;28;92688;-58
2023/08/12 11:12:36;;;;;;;2.63;1.97;;;;;;;;;;4987322;28;93387;-58
2023/08/12 11:15:05;;;;;;;4.33;2.53;;;;;;;;;;4977953;28;94594;-58
2023/08/12 11:17:34;;;;;;;8.10;3.40;;;;;;;;;;4979599;28;91915;-56
2023/08/12 11:20:05;;;;;;;5.80;3.10;;;;;;;;;;4989747;28;93107;-59
2023/08/12 11:22:34;;;;;;;4.80;3.00;;;;;;;;;;4995019;28;93895;-60
2023/08/12 11:25:03;;;;;;;5.17;2.70;;;;;;;;;;4974784;28;93058;-59
2023/08/12 11:27:38;;;;;;;6.90;2.53;;;;;;;;;;4974972;28;92126;-59
2023/08/12 11:30:07;;;;;;;3.90;2.57;;;;;;;;;;4978346;28;93154;-60
2023/08/12 11:32:36;;;;;;;3.90;2.30;;;;;;;;;;4985914;28;93785;-59
2023/08/12 11:35:05;;;;;;;4.07;1.83;;;;;;;;;;4994426;28;92431;-61
2023/08/12 11:37:34;;;;;;;3.50;1.70;;;;;;;;;;4994467;28;92664;-65
2023/08/12 11:40:03;;;;;;;4.03;1.63;;;;;;;;;;4993950;28;93815;-65
2023/08/12 11:42:32;;;;;;;3.57;2.00;;;;;;;;;;4993922;28;91598;-62
2023/08/12 11:45:02;;;;;;;3.27;2.00;;;;;;;;;;4994648;28;92323;-59
2023/08/12 11:47:31;;;;;;;4.83;1.87;;;;;;;;;;4989136;28;93196;-60
2023/08/12 11:50:00;;;;;;;3.50;2.03;;;;;;;;;;4993851;28;94186;-59
2023/08/12 11:52:28;;;;;;;3.27;1.40;;;;;;;;;;4994055;28;94812;-58
2023/08/12 11:54:57;;;;;;;1.70;1.40;;;;;;;;;;4994303;28;92106;-59
2023/08/12 11:57:25;;;;;;;1.43;1.20;;;;;;;;;;4991285;28;92203;-57
2023/08/12 11:59:53;;;;;;;3.00;1.70;;;;;;;;;;4994815;28;94095;-61
2023/08/12 12:02:23;;;;;;;4.17;2.20;;;;;;;;;;4993746;28;92825;-61
2023/08/12 12:04:52;;;;;;;5.20;1.80;;;;;;;;;;4995374;28;92420;-61
2023/08/12 12:07:21;;;;;;;5.90;1.93;;;;;;;;;;4997170;28;91319;-61
2023/08/12 12:09:52;;;;;;;4.60;2.00;;;;;;;;;;4994147;28;93103;-60
2023/08/12 12:12:23;;;;;;;4.27;1.73;;;;;;;;;;4995157;28;93724;-60
2023/08/12 12:14:53;;;;;;;1.73;1.20;;;;;;;;;;4994873;28;92943;-61
2023/08/12 12:17:23;;;;;;;3.87;1.57;;;;;;;;;;4994976;28;92691;-60
2023/08/12 12:19:55;;;;;;;3.83;1.63;;;;;;;;;;4994161;28;94468;-61
2023/08/12 12:22:27;;;;;;;3.93;1.27;;;;;;;;;;4994833;28;93807;-60
2023/08/12 12:24:56;;;;;;;3.80;1.60;;;;;;;;;;4994746;28;92058;-60
2023/08/12 12:27:25;;;;;;;2.63;1.50;;;;;;;;;;4994214;28;92088;-64
2023/08/12 12:29:53;;;;;;;4.43;1.47;;;;;;;;;;4994195;28;94120;-57
2023/08/12 12:32:23;;;;;;;3.57;1.60;;;;;;;;;;4994713;28;92837;-57
2023/08/12 12:34:52;;;;;;;6.47;1.70;;;;;;;;;;4994703;28;92661;-57
2023/08/12 12:37:20;;;;;;;4.83;1.70;;;;;;;;;;4994652;28;92133;-57
2023/08/12 12:39:49;;;;;;;13.33;2.63;;;;;;;;;;4993427;28;94022;-57
2023/08/12 12:42:17;;;;;;;10.63;3.00;;;;;;;;;;4993737;28;94799;-57
2023/08/12 12:44:45;;;;;;;7.53;2.73;;;;;;;;;;4990491;28;91947;-57
2023/08/12 12:47:14;;;;;;;10.83;2.27;;;;;;;;;;4974378;28;92150;-58
2023/08/12 12:49:44;;;;;;;7.10;2.30;;;;;;;;;;4973624;28;93284;-57
2023/08/12 12:52:12;;;;;;;11.83;2.70;;;;;;;;;;4973836;28;92725;-57
2023/08/12 12:54:41;;;;;;;9.30;2.63;;;;;;;;;;4974060;28;92132;-57
2023/08/12 12:57:10;;;;;;;5.73;2.60;;;;;;;;;;4974026;28;91382;-57
2023/08/12 12:59:38;;;;;;;9.93;3.13;;;;;;;;;;4975891;28;93850;-57
2023/08/12 13:02:07;;;;;;;5.63;2.50;;;;;;;;;;4974872;28;94222;-58
2023/08/12 13:04:36;;;;;;;4.33;2.03;;;;;;;;;;4974032;28;93020;-57
2023/08/12 13:07:06;;;;;;;5.70;2.90;;;;;;;;;;4973524;28;92084;-57
2023/08/12 13:09:34;;;;;;;4.77;2.90;;;;;;;;;;4973964;28;93144;-57
2023/08/12 13:12:02;;;;;;;6.50;3.27;;;;;;;;;;4974095;28;92776;-58
2023/08/12 13:14:31;;;;;;;5.03;2.50;;;;;;;;;;4973682;28;92063;-57
2023/08/12 13:16:59;;;;;;;11.30;3.30;;;;;;;;;;4974081;28;92106;-57
2023/08/12 13:19:28;;;;;;;4.50;2.43;;;;;;;;;;4973408;28;93157;-58
2023/08/12 13:21:56;;;;;;;8.60;2.60;;;;;;;;;;4976157;28;93732;-57
2023/08/12 13:24:26;;;;;;;6.13;2.20;;;;;;;;;;4977227;28;92569;-57
2023/08/12 13:26:55;;;;;;;5.30;1.87;;;;;;;;;;4976702;28;92232;-57
2023/08/12 13:29:25;;;;;;;6.73;2.27;;;;;;;;;;4976394;28;94135;-57
2023/08/12 13:31:54;;;;;;;6.03;2.07;;;;;;;;;;4976289;28;93811;-57
2023/08/12 13:34:22;;;;;;;9.50;2.97;;;;;;;;;;4976475;28;92078;-57
2023/08/12 13:36:51;;;;;;;4.00;2.37;;;;;;;;;;4976632;28;92159;-57
2023/08/12 13:39:20;;;;;;;9.13;2.50;;;;;;;;;;4977032;28;93123;-57
2023/08/12 13:41:50;;;;;;;6.57;1.70;;;;;;;;;;4976144;28;92974;-58
2023/08/12 13:44:18;;;;;;;7.67;2.13;;;;;;;;;;4983202;28;92505;-58
2023/08/12 13:46:47;;;;;;;6.80;2.30;;;;;;;;;;4996179;28;91459;-57
2023/08/12 13:49:15;;;;;;;4.27;2.23;;;;;;;;;;4986345;28;93076;-57
2023/08/12 13:51:43;;;;;;;5.23;1.50;;;;;;;;;;4976767;28;92939;-57
2023/08/12 13:54:12;;;;;;;5.07;2.27;;;;;;;;;;4977162;28;93883;-57
2023/08/12 13:56:40;;;;;;;7.37;2.03;;;;;;;;;;4976756;28;92152;-57
2023/08/12 13:59:10;;;;;;;4.47;1.50;;;;;;;;;;4976672;28;93415;-57
2023/08/12 14:01:39;;;;;;;5.33;1.73;;;;;;;;;;4976477;28;92558;-58
2023/08/12 14:04:11;;;;;;;3.60;1.80;;;;;;;;;;4976575;28;92069;-58
2023/08/12 14:06:40;;;;;;;3.67;1.97;;;;;;;;;;4976364;28;92596;-58
2023/08/12 14:09:08;;;;;;;4.23;1.67;;;;;;;;;;4975327;28;94085;-58
2023/08/12 14:11:37;;;;;;;4.67;1.80;;;;;;;;;;4976209;28;95235;-57
2023/08/12 14:14:05;;;;;;;2.70;1.53;;;;;;;;;;4975558;28;92181;-57
2023/08/12 14:16:35;;;;;;;3.07;1.60;;;;;;;;;;4975998;28;92100;-58
2023/08/12 14:19:04;;;;;;;5.63;1.67;;;;;;;;;;4975364;28;94473;-57
2023/08/12 14:21:32;;;;;;;4.97;1.57;;;;;;;;;;4990507;28;93642;-58
2023/08/12 14:24:01;;;;;;;4.53;1.70;;;;;;;;;;4995728;28;92099;-58
2023/08/12 14:26:29;;;;;;;2.97;1.67;;;;;;;;;;4995073;28;92214;-57
2023/08/12 14:28:57;;;;;;;2.40;1.40;;;;;;;;;;4995499;28;93200;-57
2023/08/12 14:31:26;;;;;;;2.10;1.23;;;;;;;;;;4996261;28;92860;-57
2023/08/12 14:33:56;;;;;;;7.07;1.37;;;;;;;;;;4994832;28;92105;-57
2023/08/12 14:36:24;;;;;;;4.07;1.27;;;;;;;;;;4995761;28;91336;-58
2023/08/12 14:38:53;;;;;;;2.87;1.57;;;;;;;;;;4994705;28;93131;-58
2023/08/12 14:41:21;;;;;;;3.43;2.03;;;;;;;;;;4995110;28;94983;-57
2023/08/12 14:43:50;;;;;;;5.50;1.30;;;;;;;;;;4994642;28;92974;-58
2023/08/12 14:46:18;;;;;;;3.03;1.20;;;;;;;;;;4995602;28;92603;-57
2023/08/12 14:48:47;;;;;;;1.57;1.00;;;;;;;;;;4994701;28;92241;-57
2023/08/12 14:51:17;;;;;;;2.47;1.30;;;;;;;;;;4995289;28;92722;-58
2023/08/12 14:53:47;;;;;;;3.03;1.30;;;;;;;;;;4995801;28;92055;-58